CheckWX is a tool to help pilots better visualize weather data.  It is not intended as a substitute for an official pre-flight weather briefing.

06:47:28 UTC

DAON METAR
Zenata – Messali El Hadj Airport
Tlemcen, Algeria
Current

17 mins ago

DAON 210630Z VRB02KT 9999 FEW026 16/08 Q1015
Observed
May-21 @ 06:30 UTC
Wind
  • Variable at 2 KTS
Visibility
10,000+ meters
Flight Rules
VFR
Cloud Levels
  • Few at 2,600' AGL
Temperature
16°C / 61°F
Dewpoint
C / 46°F
Humidity
59%
Altimeter
29.97" Hg
Pressure
1014.92 hPa
Previous

47 mins ago

DAON 210600Z 12004KT 9999 FEW026 13/07 Q1015
Observed
May-21 @ 06:00 UTC
Wind
  • 120° at 4 KTS
Visibility
10,000+ meters
Flight Rules
VFR
Cloud Levels
  • Few at 2,600' AGL
Temperature
13°C / 55°F
Dewpoint
C / 45°F
Humidity
67%
Altimeter
29.97" Hg
Pressure
1014.92 hPa
Previous

1 hour ago

DAON 210530Z 10002KT 9999 FEW026 12/07 Q1015
Observed
May-21 @ 05:30 UTC
Wind
  • 100° at 2 KTS
Visibility
10,000+ meters
Flight Rules
VFR
Cloud Levels
  • Few at 2,600' AGL
Temperature
12°C / 54°F
Dewpoint
C / 45°F
Humidity
72%
Altimeter
29.97" Hg
Pressure
1014.92 hPa